NCAR-RAP Real-Time Weather Data

Output produced by METARs form (10 April 2020  06:37 UTC)
found at http://weather.rap.ucar.edu/surface/
 
KIAD 100552Z 30015KT 10SM FEW080 07/M07 A2959 RMK AO2 PK WND 29027/0527 SLP017 T00721072 10106 20072 53001